sensor_id;sensor_type;location;lat;lon;timestamp;P1;durP1;ratioP1;P2;durP2;ratioP2
49852;SDS011;35751;48.072;11.688;2023-03-24T00:02:22;4.90;;;3.63;;
49852;SDS011;35751;48.072;11.688;2023-03-24T00:04:48;7.35;;;3.58;;
49852;SDS011;35751;48.072;11.688;2023-03-24T00:07:16;6.00;;;4.07;;
49852;SDS011;35751;48.072;11.688;2023-03-24T00:09:43;6.72;;;3.80;;
49852;SDS011;35751;48.072;11.688;2023-03-24T00:12:09;7.95;;;4.55;;
49852;SDS011;35751;48.072;11.688;2023-03-24T00:14:38;6.70;;;4.30;;
49852;SDS011;35751;48.072;11.688;2023-03-24T00:17:07;5.32;;;3.83;;
49852;SDS011;35751;48.072;11.688;2023-03-24T00:19:41;5.95;;;3.85;;
49852;SDS011;35751;48.072;11.688;2023-03-24T00:22:09;6.53;;;4.03;;
49852;SDS011;35751;48.072;11.688;2023-03-24T00:24:38;5.35;;;4.22;;
49852;SDS011;35751;48.072;11.688;2023-03-24T00:27:05;6.20;;;3.60;;
49852;SDS011;35751;48.072;11.688;2023-03-24T00:29:31;4.78;;;3.15;;
49852;SDS011;35751;48.072;11.688;2023-03-24T00:31:57;6.28;;;3.95;;
49852;SDS011;35751;48.072;11.688;2023-03-24T00:34:23;5.95;;;3.45;;
49852;SDS011;35751;48.072;11.688;2023-03-24T00:36:49;6.65;;;3.75;;
49852;SDS011;35751;48.072;11.688;2023-03-24T00:39:16;7.28;;;3.70;;
49852;SDS011;35751;48.072;11.688;2023-03-24T00:41:43;8.15;;;4.05;;
49852;SDS011;35751;48.072;11.688;2023-03-24T00:44:09;5.28;;;3.03;;
49852;SDS011;35751;48.072;11.688;2023-03-24T00:46:48;6.80;;;3.63;;
49852;SDS011;35751;48.072;11.688;2023-03-24T00:49:21;5.15;;;3.85;;
49852;SDS011;35751;48.072;11.688;2023-03-24T00:52:16;8.38;;;4.63;;
49852;SDS011;35751;48.072;11.688;2023-03-24T00:54:44;4.18;;;3.17;;
49852;SDS011;35751;48.072;11.688;2023-03-24T00:57:12;6.60;;;4.18;;
49852;SDS011;35751;48.072;11.688;2023-03-24T00:59:38;5.28;;;3.92;;
49852;SDS011;35751;48.072;11.688;2023-03-24T01:02:07;5.45;;;4.32;;
49852;SDS011;35751;48.072;11.688;2023-03-24T01:04:39;5.30;;;4.47;;
49852;SDS011;35751;48.072;11.688;2023-03-24T01:07:07;5.22;;;3.80;;
49852;SDS011;35751;48.072;11.688;2023-03-24T01:09:35;5.75;;;3.67;;
49852;SDS011;35751;48.072;11.688;2023-03-24T01:12:01;5.35;;;4.05;;
49852;SDS011;35751;48.072;11.688;2023-03-24T01:14:28;6.13;;;4.30;;
49852;SDS011;35751;48.072;11.688;2023-03-24T01:16:57;7.93;;;4.00;;
49852;SDS011;35751;48.072;11.688;2023-03-24T01:19:23;6.55;;;4.43;;
49852;SDS011;35751;48.072;11.688;2023-03-24T01:21:49;4.65;;;3.45;;
49852;SDS011;35751;48.072;11.688;2023-03-24T01:24:15;5.18;;;3.83;;
49852;SDS011;35751;48.072;11.688;2023-03-24T01:26:41;6.65;;;3.88;;
49852;SDS011;35751;48.072;11.688;2023-03-24T01:29:07;5.50;;;3.95;;
49852;SDS011;35751;48.072;11.688;2023-03-24T01:31:32;4.80;;;3.30;;
49852;SDS011;35751;48.072;11.688;2023-03-24T01:33:58;5.90;;;3.40;;
49852;SDS011;35751;48.072;11.688;2023-03-24T01:36:23;6.22;;;3.40;;
49852;SDS011;35751;48.072;11.688;2023-03-24T01:38:49;7.55;;;3.92;;
49852;SDS011;35751;48.072;11.688;2023-03-24T01:41:14;6.18;;;3.70;;
49852;SDS011;35751;48.072;11.688;2023-03-24T01:43:40;4.90;;;3.65;;
49852;SDS011;35751;48.072;11.688;2023-03-24T01:48:56;3.70;;;2.80;;
49852;SDS011;35751;48.072;11.688;2023-03-24T01:51:31;4.78;;;3.33;;
49852;SDS011;35751;48.072;11.688;2023-03-24T01:56:48;6.00;;;3.80;;
49852;SDS011;35751;48.072;11.688;2023-03-24T01:59:22;5.53;;;3.80;;
49852;SDS011;35751;48.072;11.688;2023-03-24T02:01:49;5.00;;;3.22;;
49852;SDS011;35751;48.072;11.688;2023-03-24T02:04:16;4.82;;;3.70;;
49852;SDS011;35751;48.072;11.688;2023-03-24T02:06:42;7.63;;;3.70;;
49852;SDS011;35751;48.072;11.688;2023-03-24T02:09:09;7.28;;;3.67;;
49852;SDS011;35751;48.072;11.688;2023-03-24T02:11:36;5.13;;;3.28;;
49852;SDS011;35751;48.072;11.688;2023-03-24T02:14:02;4.07;;;3.20;;
49852;SDS011;35751;48.072;11.688;2023-03-24T02:36:02;6.72;;;3.45;;
49852;SDS011;35751;48.072;11.688;2023-03-24T02:44:07;4.75;;;3.13;;
49852;SDS011;35751;48.072;11.688;2023-03-24T02:46:51;4.07;;;2.85;;
49852;SDS011;35751;48.072;11.688;2023-03-24T02:49:24;5.22;;;3.75;;
49852;SDS011;35751;48.072;11.688;2023-03-24T02:51:53;4.60;;;3.30;;
49852;SDS011;35751;48.072;11.688;2023-03-24T03:02:56;4.38;;;3.22;;
49852;SDS011;35751;48.072;11.688;2023-03-24T03:05:46;3.88;;;3.22;;
49852;SDS011;35751;48.072;11.688;2023-03-24T03:08:15;4.43;;;3.05;;
49852;SDS011;35751;48.072;11.688;2023-03-24T03:10:42;7.68;;;3.47;;
49852;SDS011;35751;48.072;11.688;2023-03-24T03:13:19;10.05;;;4.25;;
49852;SDS011;35751;48.072;11.688;2023-03-24T03:15:49;5.57;;;4.35;;
49852;SDS011;35751;48.072;11.688;2023-03-24T03:18:31;5.07;;;3.80;;
49852;SDS011;35751;48.072;11.688;2023-03-24T03:21:04;4.47;;;3.33;;
49852;SDS011;35751;48.072;11.688;2023-03-24T03:23:34;7.13;;;3.78;;
49852;SDS011;35751;48.072;11.688;2023-03-24T03:26:02;6.50;;;4.18;;
49852;SDS011;35751;48.072;11.688;2023-03-24T03:28:30;5.18;;;3.65;;
49852;SDS011;35751;48.072;11.688;2023-03-24T03:30:58;5.65;;;4.38;;
49852;SDS011;35751;48.072;11.688;2023-03-24T03:33:30;5.30;;;4.45;;
49852;SDS011;35751;48.072;11.688;2023-03-24T03:44:03;5.50;;;4.80;;
49852;SDS011;35751;48.072;11.688;2023-03-24T03:46:28;5.03;;;3.95;;
49852;SDS011;35751;48.072;11.688;2023-03-24T03:48:53;6.15;;;3.72;;
49852;SDS011;35751;48.072;11.688;2023-03-24T03:51:19;7.57;;;3.78;;
49852;SDS011;35751;48.072;11.688;2023-03-24T03:53:49;8.75;;;4.82;;
49852;SDS011;35751;48.072;11.688;2023-03-24T03:56:17;9.18;;;4.60;;
49852;SDS011;35751;48.072;11.688;2023-03-24T03:58:45;6.85;;;4.85;;
49852;SDS011;35751;48.072;11.688;2023-03-24T04:01:11;6.93;;;4.03;;
49852;SDS011;35751;48.072;11.688;2023-03-24T04:03:50;5.97;;;4.22;;
49852;SDS011;35751;48.072;11.688;2023-03-24T04:08:52;7.05;;;3.90;;
49852;SDS011;35751;48.072;11.688;2023-03-24T04:11:24;4.97;;;4.05;;
49852;SDS011;35751;48.072;11.688;2023-03-24T04:19:44;6.18;;;4.43;;
49852;SDS011;35751;48.072;11.688;2023-03-24T04:22:33;8.93;;;4.03;;
49852;SDS011;35751;48.072;11.688;2023-03-24T04:33:13;5.88;;;3.90;;
49852;SDS011;35751;48.072;11.688;2023-03-24T04:36:04;5.30;;;3.70;;
49852;SDS011;35751;48.072;11.688;2023-03-24T04:38:30;5.25;;;3.45;;
49852;SDS011;35751;48.072;11.688;2023-03-24T04:40:59;8.55;;;4.53;;
49852;SDS011;35751;48.072;11.688;2023-03-24T04:43:26;6.85;;;3.55;;
49852;SDS011;35751;48.072;11.688;2023-03-24T04:45:53;3.85;;;3.42;;
49852;SDS011;35751;48.072;11.688;2023-03-24T04:48:22;6.72;;;3.55;;
49852;SDS011;35751;48.072;11.688;2023-03-24T04:50:53;5.97;;;3.40;;
49852;SDS011;35751;48.072;11.688;2023-03-24T04:53:20;8.93;;;4.00;;
49852;SDS011;35751;48.072;11.688;2023-03-24T04:58:14;5.25;;;4.10;;
49852;SDS011;35751;48.072;11.688;2023-03-24T05:00:43;6.70;;;3.90;;
49852;SDS011;35751;48.072;11.688;2023-03-24T05:03:09;5.88;;;3.85;;
49852;SDS011;35751;48.072;11.688;2023-03-24T05:05:41;4.63;;;3.72;;
49852;SDS011;35751;48.072;11.688;2023-03-24T05:08:07;5.80;;;3.60;;
49852;SDS011;35751;48.072;11.688;2023-03-24T05:10:33;5.93;;;4.40;;
49852;SDS011;35751;48.072;11.688;2023-03-24T05:12:59;5.90;;;4.45;;
49852;SDS011;35751;48.072;11.688;2023-03-24T05:15:25;8.52;;;4.00;;
49852;SDS011;35751;48.072;11.688;2023-03-24T05:17:50;6.20;;;3.75;;
49852;SDS011;35751;48.072;11.688;2023-03-24T05:20:17;7.72;;;4.28;;
49852;SDS011;35751;48.072;11.688;2023-03-24T05:22:43;6.43;;;3.55;;
49852;SDS011;35751;48.072;11.688;2023-03-24T05:25:08;6.22;;;3.97;;
49852;SDS011;35751;48.072;11.688;2023-03-24T05:27:34;7.75;;;3.67;;
49852;SDS011;35751;48.072;11.688;2023-03-24T05:29:59;11.50;;;4.25;;
49852;SDS011;35751;48.072;11.688;2023-03-24T05:32:25;6.55;;;4.38;;
49852;SDS011;35751;48.072;11.688;2023-03-24T05:34:51;4.68;;;3.75;;
49852;SDS011;35751;48.072;11.688;2023-03-24T05:37:16;6.05;;;4.47;;
49852;SDS011;35751;48.072;11.688;2023-03-24T05:39:42;8.73;;;4.80;;
49852;SDS011;35751;48.072;11.688;2023-03-24T05:42:07;6.95;;;4.40;;
49852;SDS011;35751;48.072;11.688;2023-03-24T05:44:33;11.65;;;5.82;;
49852;SDS011;35751;48.072;11.688;2023-03-24T05:46:58;9.23;;;4.75;;
49852;SDS011;35751;48.072;11.688;2023-03-24T05:49:24;7.25;;;4.55;;
49852;SDS011;35751;48.072;11.688;2023-03-24T05:51:49;6.47;;;4.45;;
49852;SDS011;35751;48.072;11.688;2023-03-24T05:54:15;8.13;;;5.00;;
49852;SDS011;35751;48.072;11.688;2023-03-24T05:56:40;7.45;;;5.53;;
49852;SDS011;35751;48.072;11.688;2023-03-24T05:59:06;7.47;;;5.05;;
49852;SDS011;35751;48.072;11.688;2023-03-24T06:01:31;8.18;;;5.63;;
49852;SDS011;35751;48.072;11.688;2023-03-24T06:03:57;7.53;;;5.07;;
49852;SDS011;35751;48.072;11.688;2023-03-24T06:06:22;8.50;;;5.35;;
49852;SDS011;35751;48.072;11.688;2023-03-24T06:08:47;8.38;;;4.93;;
49852;SDS011;35751;48.072;11.688;2023-03-24T06:11:13;5.00;;;4.35;;
49852;SDS011;35751;48.072;11.688;2023-03-24T06:13:39;7.32;;;4.50;;
49852;SDS011;35751;48.072;11.688;2023-03-24T06:16:06;7.80;;;5.03;;
49852;SDS011;35751;48.072;11.688;2023-03-24T06:18:31;11.55;;;6.15;;
49852;SDS011;35751;48.072;11.688;2023-03-24T06:24:19;10.23;;;6.55;;
49852;SDS011;35751;48.072;11.688;2023-03-24T06:27:36;6.43;;;4.97;;
49852;SDS011;35751;48.072;11.688;2023-03-24T06:30:04;6.85;;;5.15;;
49852;SDS011;35751;48.072;11.688;2023-03-24T06:32:47;8.75;;;4.78;;
49852;SDS011;35751;48.072;11.688;2023-03-24T06:35:48;7.25;;;4.82;;
49852;SDS011;35751;48.072;11.688;2023-03-24T06:38:30;9.05;;;5.15;;
49852;SDS011;35751;48.072;11.688;2023-03-24T06:41:09;8.35;;;5.25;;
49852;SDS011;35751;48.072;11.688;2023-03-24T06:43:37;7.10;;;4.72;;
49852;SDS011;35751;48.072;11.688;2023-03-24T06:49:05;8.40;;;4.95;;
49852;SDS011;35751;48.072;11.688;2023-03-24T06:51:43;9.48;;;5.25;;
49852;SDS011;35751;48.072;11.688;2023-03-24T06:54:14;5.82;;;4.88;;
49852;SDS011;35751;48.072;11.688;2023-03-24T06:56:44;7.88;;;5.18;;
49852;SDS011;35751;48.072;11.688;2023-03-24T06:59:09;5.85;;;4.47;;
49852;SDS011;35751;48.072;11.688;2023-03-24T07:01:42;6.20;;;5.13;;
49852;SDS011;35751;48.072;11.688;2023-03-24T07:04:08;10.20;;;5.28;;
49852;SDS011;35751;48.072;11.688;2023-03-24T07:06:33;9.50;;;4.93;;
49852;SDS011;35751;48.072;11.688;2023-03-24T07:09:01;7.43;;;5.38;;
49852;SDS011;35751;48.072;11.688;2023-03-24T07:11:27;7.57;;;5.85;;
49852;SDS011;35751;48.072;11.688;2023-03-24T07:13:52;8.25;;;5.00;;
49852;SDS011;35751;48.072;11.688;2023-03-24T07:16:17;7.55;;;4.90;;
49852;SDS011;35751;48.072;11.688;2023-03-24T07:18:43;6.93;;;5.25;;
49852;SDS011;35751;48.072;11.688;2023-03-24T07:21:08;13.23;;;5.45;;
49852;SDS011;35751;48.072;11.688;2023-03-24T07:23:33;6.07;;;4.63;;
49852;SDS011;35751;48.072;11.688;2023-03-24T07:25:59;10.35;;;5.82;;
49852;SDS011;35751;48.072;11.688;2023-03-24T07:28:24;6.60;;;4.80;;
49852;SDS011;35751;48.072;11.688;2023-03-24T07:30:50;6.90;;;5.15;;
49852;SDS011;35751;48.072;11.688;2023-03-24T07:33:15;7.25;;;5.22;;
49852;SDS011;35751;48.072;11.688;2023-03-24T07:35:41;8.35;;;4.90;;
49852;SDS011;35751;48.072;11.688;2023-03-24T07:38:07;10.48;;;5.53;;
49852;SDS011;35751;48.072;11.688;2023-03-24T07:40:32;7.07;;;5.35;;
49852;SDS011;35751;48.072;11.688;2023-03-24T07:42:59;9.30;;;6.03;;
49852;SDS011;35751;48.072;11.688;2023-03-24T07:45:27;9.73;;;5.65;;
49852;SDS011;35751;48.072;11.688;2023-03-24T07:47:53;11.02;;;5.40;;
49852;SDS011;35751;48.072;11.688;2023-03-24T07:50:21;6.63;;;4.95;;
49852;SDS011;35751;48.072;11.688;2023-03-24T07:52:47;6.53;;;4.95;;
49852;SDS011;35751;48.072;11.688;2023-03-24T07:55:13;8.00;;;5.63;;
49852;SDS011;35751;48.072;11.688;2023-03-24T07:57:40;9.57;;;5.25;;
49852;SDS011;35751;48.072;11.688;2023-03-24T08:00:07;9.77;;;6.68;;
49852;SDS011;35751;48.072;11.688;2023-03-24T08:02:40;7.43;;;5.68;;
49852;SDS011;35751;48.072;11.688;2023-03-24T08:05:09;7.80;;;5.82;;
49852;SDS011;35751;48.072;11.688;2023-03-24T08:07:38;8.27;;;5.55;;
49852;SDS011;35751;48.072;11.688;2023-03-24T08:10:10;7.80;;;6.03;;
49852;SDS011;35751;48.072;11.688;2023-03-24T08:12:38;7.80;;;5.72;;
49852;SDS011;35751;48.072;11.688;2023-03-24T08:15:14;9.17;;;5.43;;
49852;SDS011;35751;48.072;11.688;2023-03-24T08:18:02;8.98;;;6.57;;
49852;SDS011;35751;48.072;11.688;2023-03-24T08:20:38;7.00;;;5.63;;
49852;SDS011;35751;48.072;11.688;2023-03-24T08:23:04;8.05;;;5.47;;
49852;SDS011;35751;48.072;11.688;2023-03-24T08:25:32;6.72;;;5.38;;
49852;SDS011;35751;48.072;11.688;2023-03-24T08:28:00;9.10;;;5.28;;
49852;SDS011;35751;48.072;11.688;2023-03-24T08:30:28;7.75;;;5.70;;
49852;SDS011;35751;48.072;11.688;2023-03-24T08:32:55;9.63;;;5.38;;
49852;SDS011;35751;48.072;11.688;2023-03-24T08:35:23;9.02;;;5.60;;
49852;SDS011;35751;48.072;11.688;2023-03-24T08:38:11;7.28;;;4.40;;
49852;SDS011;35751;48.072;11.688;2023-03-24T08:40:39;10.48;;;6.30;;
49852;SDS011;35751;48.072;11.688;2023-03-24T08:43:06;7.20;;;5.07;;
49852;SDS011;35751;48.072;11.688;2023-03-24T08:45:33;9.52;;;5.60;;
49852;SDS011;35751;48.072;11.688;2023-03-24T08:48:01;7.90;;;5.40;;
49852;SDS011;35751;48.072;11.688;2023-03-24T08:50:32;9.10;;;5.72;;
49852;SDS011;35751;48.072;11.688;2023-03-24T08:53:02;6.32;;;4.50;;
49852;SDS011;35751;48.072;11.688;2023-03-24T08:55:28;7.32;;;4.47;;
49852;SDS011;35751;48.072;11.688;2023-03-24T08:57:57;6.65;;;4.35;;
49852;SDS011;35751;48.072;11.688;2023-03-24T09:00:24;7.68;;;3.85;;
49852;SDS011;35751;48.072;11.688;2023-03-24T09:02:56;6.38;;;3.75;;
49852;SDS011;35751;48.072;11.688;2023-03-24T09:08:47;5.32;;;4.07;;
49852;SDS011;35751;48.072;11.688;2023-03-24T09:11:19;5.32;;;3.85;;
49852;SDS011;35751;48.072;11.688;2023-03-24T09:13:45;4.43;;;3.53;;
49852;SDS011;35751;48.072;11.688;2023-03-24T09:16:11;5.50;;;3.25;;
49852;SDS011;35751;48.072;11.688;2023-03-24T09:18:37;4.13;;;3.35;;
49852;SDS011;35751;48.072;11.688;2023-03-24T09:21:02;3.47;;;2.58;;
49852;SDS011;35751;48.072;11.688;2023-03-24T09:23:28;3.63;;;2.47;;
49852;SDS011;35751;48.072;11.688;2023-03-24T09:25:55;3.97;;;2.17;;
49852;SDS011;35751;48.072;11.688;2023-03-24T09:28:21;4.30;;;2.30;;
49852;SDS011;35751;48.072;11.688;2023-03-24T09:30:48;3.42;;;2.42;;
49852;SDS011;35751;48.072;11.688;2023-03-24T09:33:14;4.43;;;2.65;;
49852;SDS011;35751;48.072;11.688;2023-03-24T09:35:40;4.10;;;2.28;;
49852;SDS011;35751;48.072;11.688;2023-03-24T09:38:05;5.88;;;2.35;;
49852;SDS011;35751;48.072;11.688;2023-03-24T09:40:32;2.53;;;1.90;;
49852;SDS011;35751;48.072;11.688;2023-03-24T09:43:07;3.47;;;2.45;;
49852;SDS011;35751;48.072;11.688;2023-03-24T09:45:43;3.95;;;2.03;;
49852;SDS011;35751;48.072;11.688;2023-03-24T09:48:20;5.22;;;2.15;;
49852;SDS011;35751;48.072;11.688;2023-03-24T09:50:57;3.33;;;3.03;;
49852;SDS011;35751;48.072;11.688;2023-03-24T09:53:27;3.50;;;2.65;;
49852;SDS011;35751;48.072;11.688;2023-03-24T09:56:23;3.25;;;2.42;;
49852;SDS011;35751;48.072;11.688;2023-03-24T09:59:09;3.38;;;2.42;;
49852;SDS011;35751;48.072;11.688;2023-03-24T10:01:44;3.25;;;2.50;;
49852;SDS011;35751;48.072;11.688;2023-03-24T10:04:19;9.68;;;2.58;;
49852;SDS011;35751;48.072;11.688;2023-03-24T10:06:47;3.47;;;2.70;;
49852;SDS011;35751;48.072;11.688;2023-03-24T10:14:33;5.03;;;2.95;;
49852;SDS011;35751;48.072;11.688;2023-03-24T10:25:19;5.10;;;2.67;;
49852;SDS011;35751;48.072;11.688;2023-03-24T10:27:58;5.35;;;2.92;;
49852;SDS011;35751;48.072;11.688;2023-03-24T10:30:27;3.65;;;2.80;;
49852;SDS011;35751;48.072;11.688;2023-03-24T10:32:54;3.83;;;3.10;;
49852;SDS011;35751;48.072;11.688;2023-03-24T10:35:21;3.22;;;2.78;;
49852;SDS011;35751;48.072;11.688;2023-03-24T10:37:49;9.35;;;3.22;;
49852;SDS011;35751;48.072;11.688;2023-03-24T10:40:20;5.38;;;3.08;;
49852;SDS011;35751;48.072;11.688;2023-03-24T10:42:53;7.25;;;3.08;;
49852;SDS011;35751;48.072;11.688;2023-03-24T10:48:32;6.15;;;3.40;;
49852;SDS011;35751;48.072;11.688;2023-03-24T10:51:32;5.25;;;3.70;;
49852;SDS011;35751;48.072;11.688;2023-03-24T10:53:51;6.22;;;3.00;;
49852;SDS011;35751;48.072;11.688;2023-03-24T10:59:27;4.82;;;3.10;;
49852;SDS011;35751;48.072;11.688;2023-03-24T11:04:35;4.40;;;3.35;;
49852;SDS011;35751;48.072;11.688;2023-03-24T11:09:43;3.97;;;2.75;;
49852;SDS011;35751;48.072;11.688;2023-03-24T11:12:19;5.30;;;2.70;;
49852;SDS011;35751;48.072;11.688;2023-03-24T11:14:46;5.05;;;2.53;;
49852;SDS011;35751;48.072;11.688;2023-03-24T11:17:12;5.60;;;2.00;;
49852;SDS011;35751;48.072;11.688;2023-03-24T11:19:54;2.92;;;2.22;;
49852;SDS011;35751;48.072;11.688;2023-03-24T11:22:27;3.60;;;2.15;;
49852;SDS011;35751;48.072;11.688;2023-03-24T11:24:54;3.80;;;2.30;;
49852;SDS011;35751;48.072;11.688;2023-03-24T11:27:23;2.70;;;2.40;;
49852;SDS011;35751;48.072;11.688;2023-03-24T11:32:25;2.37;;;2.00;;
49852;SDS011;35751;48.072;11.688;2023-03-24T11:35:00;4.57;;;2.63;;
49852;SDS011;35751;48.072;11.688;2023-03-24T11:37:30;3.17;;;2.35;;
49852;SDS011;35751;48.072;11.688;2023-03-24T11:40:04;3.20;;;2.17;;
49852;SDS011;35751;48.072;11.688;2023-03-24T11:42:59;4.53;;;2.90;;
49852;SDS011;35751;48.072;11.688;2023-03-24T11:51:06;5.78;;;3.70;;
49852;SDS011;35751;48.072;11.688;2023-03-24T11:53:41;4.68;;;3.30;;
49852;SDS011;35751;48.072;11.688;2023-03-24T11:59:21;4.50;;;3.40;;
49852;SDS011;35751;48.072;11.688;2023-03-24T12:02:03;4.10;;;2.85;;
49852;SDS011;35751;48.072;11.688;2023-03-24T12:15:43;4.55;;;3.50;;
49852;SDS011;35751;48.072;11.688;2023-03-24T12:18:23;5.03;;;3.38;;
49852;SDS011;35751;48.072;11.688;2023-03-24T12:26:10;5.40;;;3.22;;
49852;SDS011;35751;48.072;11.688;2023-03-24T12:29:07;4.35;;;2.97;;
49852;SDS011;35751;48.072;11.688;2023-03-24T12:31:55;6.45;;;4.10;;
49852;SDS011;35751;48.072;11.688;2023-03-24T12:46:32;6.20;;;3.92;;
49852;SDS011;35751;48.072;11.688;2023-03-24T12:57:41;5.75;;;4.10;;
49852;SDS011;35751;48.072;11.688;2023-03-24T13:00:16;6.50;;;3.38;;
49852;SDS011;35751;48.072;11.688;2023-03-24T13:02:45;5.18;;;3.78;;
49852;SDS011;35751;48.072;11.688;2023-03-24T13:05:46;4.07;;;3.40;;
49852;SDS011;35751;48.072;11.688;2023-03-24T13:08:11;7.45;;;4.05;;
49852;SDS011;35751;48.072;11.688;2023-03-24T13:10:40;4.43;;;3.50;;
49852;SDS011;35751;48.072;11.688;2023-03-24T13:13:12;4.65;;;3.70;;
49852;SDS011;35751;48.072;11.688;2023-03-24T13:18:30;5.55;;;4.50;;
49852;SDS011;35751;48.072;11.688;2023-03-24T13:31:59;5.25;;;3.72;;
49852;SDS011;35751;48.072;11.688;2023-03-24T13:37:24;3.20;;;2.90;;
49852;SDS011;35751;48.072;11.688;2023-03-24T13:39:56;5.88;;;3.92;;
49852;SDS011;35751;48.072;11.688;2023-03-24T13:42:30;5.03;;;3.47;;
49852;SDS011;35751;48.072;11.688;2023-03-24T13:45:57;4.47;;;3.55;;
49852;SDS011;35751;48.072;11.688;2023-03-24T13:48:14;4.63;;;3.33;;
49852;SDS011;35751;48.072;11.688;2023-03-24T13:50:46;5.18;;;3.90;;
49852;SDS011;35751;48.072;11.688;2023-03-24T13:53:29;8.77;;;4.13;;
49852;SDS011;35751;48.072;11.688;2023-03-24T13:56:08;3.00;;;2.45;;
49852;SDS011;35751;48.072;11.688;2023-03-24T13:58:45;2.80;;;2.47;;
49852;SDS011;35751;48.072;11.688;2023-03-24T14:01:17;2.45;;;2.25;;
49852;SDS011;35751;48.072;11.688;2023-03-24T14:09:23;2.28;;;1.75;;
49852;SDS011;35751;48.072;11.688;2023-03-24T14:14:24;2.53;;;1.90;;
49852;SDS011;35751;48.072;11.688;2023-03-24T14:22:31;2.10;;;1.50;;
49852;SDS011;35751;48.072;11.688;2023-03-24T14:27:54;1.70;;;1.30;;
49852;SDS011;35751;48.072;11.688;2023-03-24T14:30:32;1.65;;;1.55;;
49852;SDS011;35751;48.072;11.688;2023-03-24T14:33:04;2.22;;;1.60;;
49852;SDS011;35751;48.072;11.688;2023-03-24T14:38:02;2.05;;;1.63;;
49852;SDS011;35751;48.072;11.688;2023-03-24T14:40:33;1.17;;;1.08;;
49852;SDS011;35751;48.072;11.688;2023-03-24T14:45:58;3.05;;;1.27;;
49852;SDS011;35751;48.072;11.688;2023-03-24T14:48:28;3.60;;;1.23;;
49852;SDS011;35751;48.072;11.688;2023-03-24T14:50:57;0.73;;;0.73;;
49852;SDS011;35751;48.072;11.688;2023-03-24T14:53:25;2.35;;;1.00;;
49852;SDS011;35751;48.072;11.688;2023-03-24T14:55:59;2.28;;;1.10;;
49852;SDS011;35751;48.072;11.688;2023-03-24T14:58:34;1.88;;;0.90;;
49852;SDS011;35751;48.072;11.688;2023-03-24T15:01:01;0.85;;;0.80;;
49852;SDS011;35751;48.072;11.688;2023-03-24T15:03:29;1.40;;;1.00;;
49852;SDS011;35751;48.072;11.688;2023-03-24T15:06:02;0.88;;;0.80;;
49852;SDS011;35751;48.072;11.688;2023-03-24T15:08:36;1.55;;;0.98;;
49852;SDS011;35751;48.072;11.688;2023-03-24T15:11:04;2.47;;;1.00;;
49852;SDS011;35751;48.072;11.688;2023-03-24T15:13:47;3.03;;;1.00;;
49852;SDS011;35751;48.072;11.688;2023-03-24T15:21:26;2.08;;;1.40;;
49852;SDS011;35751;48.072;11.688;2023-03-24T15:26:45;1.35;;;1.15;;
49852;SDS011;35751;48.072;11.688;2023-03-24T15:29:11;2.63;;;1.55;;
49852;SDS011;35751;48.072;11.688;2023-03-24T15:31:36;5.35;;;3.08;;
49852;SDS011;35751;48.072;11.688;2023-03-24T15:39:24;1.90;;;1.40;;
49852;SDS011;35751;48.072;11.688;2023-03-24T15:41:50;1.48;;;1.15;;
49852;SDS011;35751;48.072;11.688;2023-03-24T15:44:20;1.75;;;1.23;;
49852;SDS011;35751;48.072;11.688;2023-03-24T15:46:53;2.13;;;1.70;;
49852;SDS011;35751;48.072;11.688;2023-03-24T15:49:26;2.03;;;1.30;;
49852;SDS011;35751;48.072;11.688;2023-03-24T15:51:59;3.25;;;2.78;;
49852;SDS011;35751;48.072;11.688;2023-03-24T15:54:30;4.00;;;2.42;;
49852;SDS011;35751;48.072;11.688;2023-03-24T15:57:21;4.40;;;3.17;;
49852;SDS011;35751;48.072;11.688;2023-03-24T16:02:46;1.92;;;1.58;;
49852;SDS011;35751;48.072;11.688;2023-03-24T16:05:18;2.83;;;2.22;;
49852;SDS011;35751;48.072;11.688;2023-03-24T16:07:44;4.60;;;2.53;;
49852;SDS011;35751;48.072;11.688;2023-03-24T16:12:51;4.80;;;3.55;;
49852;SDS011;35751;48.072;11.688;2023-03-24T16:15:17;2.70;;;2.00;;
49852;SDS011;35751;48.072;11.688;2023-03-24T16:17:42;10.18;;;3.85;;
49852;SDS011;35751;48.072;11.688;2023-03-24T16:20:17;12.68;;;7.10;;
49852;SDS011;35751;48.072;11.688;2023-03-24T16:22:46;8.10;;;3.97;;
49852;SDS011;35751;48.072;11.688;2023-03-24T16:25:12;11.65;;;8.75;;
49852;SDS011;35751;48.072;11.688;2023-03-24T16:27:38;2.60;;;2.13;;
49852;SDS011;35751;48.072;11.688;2023-03-24T16:30:38;4.30;;;2.55;;
49852;SDS011;35751;48.072;11.688;2023-03-24T16:33:01;3.60;;;1.95;;
49852;SDS011;35751;48.072;11.688;2023-03-24T16:35:27;5.38;;;2.92;;
49852;SDS011;35751;48.072;11.688;2023-03-24T16:37:53;5.57;;;1.92;;
49852;SDS011;35751;48.072;11.688;2023-03-24T16:43:03;2.72;;;2.35;;
49852;SDS011;35751;48.072;11.688;2023-03-24T16:45:29;6.53;;;3.50;;
49852;SDS011;35751;48.072;11.688;2023-03-24T16:47:55;3.15;;;2.20;;
49852;SDS011;35751;48.072;11.688;2023-03-24T16:50:28;6.20;;;3.13;;
49852;SDS011;35751;48.072;11.688;2023-03-24T16:52:56;5.50;;;3.25;;
49852;SDS011;35751;48.072;11.688;2023-03-24T16:55:22;4.93;;;2.60;;
49852;SDS011;35751;48.072;11.688;2023-03-24T16:57:47;12.57;;;7.78;;
49852;SDS011;35751;48.072;11.688;2023-03-24T17:00:13;8.38;;;5.75;;
49852;SDS011;35751;48.072;11.688;2023-03-24T17:02:38;3.15;;;2.03;;
49852;SDS011;35751;48.072;11.688;2023-03-24T17:05:17;3.03;;;2.20;;
49852;SDS011;35751;48.072;11.688;2023-03-24T17:07:48;6.20;;;5.22;;
49852;SDS011;35751;48.072;11.688;2023-03-24T17:10:14;5.90;;;2.90;;
49852;SDS011;35751;48.072;11.688;2023-03-24T17:12:39;4.25;;;2.78;;
49852;SDS011;35751;48.072;11.688;2023-03-24T17:15:06;5.78;;;3.47;;
49852;SDS011;35751;48.072;11.688;2023-03-24T17:17:33;3.05;;;1.90;;
49852;SDS011;35751;48.072;11.688;2023-03-24T17:19:58;3.28;;;2.03;;
49852;SDS011;35751;48.072;11.688;2023-03-24T17:22:27;2.05;;;1.45;;
49852;SDS011;35751;48.072;11.688;2023-03-24T17:24:53;3.33;;;2.25;;
49852;SDS011;35751;48.072;11.688;2023-03-24T17:27:22;2.20;;;2.00;;
49852;SDS011;35751;48.072;11.688;2023-03-24T17:29:50;6.05;;;2.40;;
49852;SDS011;35751;48.072;11.688;2023-03-24T17:32:17;2.97;;;1.77;;
49852;SDS011;35751;48.072;11.688;2023-03-24T17:34:45;1.92;;;1.15;;
49852;SDS011;35751;48.072;11.688;2023-03-24T17:37:11;3.40;;;1.48;;
49852;SDS011;35751;48.072;11.688;2023-03-24T17:39:36;3.90;;;1.65;;
49852;SDS011;35751;48.072;11.688;2023-03-24T17:42:02;1.85;;;1.50;;
49852;SDS011;35751;48.072;11.688;2023-03-24T17:44:28;4.00;;;1.50;;
49852;SDS011;35751;48.072;11.688;2023-03-24T17:46:53;1.17;;;1.08;;
49852;SDS011;35751;48.072;11.688;2023-03-24T17:49:18;1.85;;;1.27;;
49852;SDS011;35751;48.072;11.688;2023-03-24T17:51:44;3.35;;;1.58;;
49852;SDS011;35751;48.072;11.688;2023-03-24T17:54:09;1.60;;;1.15;;
49852;SDS011;35751;48.072;11.688;2023-03-24T17:56:35;6.03;;;2.17;;
49852;SDS011;35751;48.072;11.688;2023-03-24T17:59:01;1.63;;;1.13;;
49852;SDS011;35751;48.072;11.688;2023-03-24T18:01:27;1.33;;;1.20;;
49852;SDS011;35751;48.072;11.688;2023-03-24T18:03:53;1.63;;;1.25;;
49852;SDS011;35751;48.072;11.688;2023-03-24T18:06:19;1.88;;;1.40;;
49852;SDS011;35751;48.072;11.688;2023-03-24T18:08:44;1.85;;;1.45;;
49852;SDS011;35751;48.072;11.688;2023-03-24T18:11:11;2.55;;;1.80;;
49852;SDS011;35751;48.072;11.688;2023-03-24T18:13:38;2.05;;;1.42;;
49852;SDS011;35751;48.072;11.688;2023-03-24T18:16:05;1.58;;;1.20;;
49852;SDS011;35751;48.072;11.688;2023-03-24T18:18:32;2.50;;;1.42;;
49852;SDS011;35751;48.072;11.688;2023-03-24T18:21:01;2.60;;;1.63;;